createdAt,value
2018-06-01T00:02:01.193Z,19.19
2018-06-01T00:04:28.771Z,18.92
2018-06-01T00:06:56.325Z,19.01
2018-06-01T00:09:23.941Z,19.39
2018-06-01T00:11:51.398Z,20.06
2018-06-01T00:14:19.344Z,20.04
2018-06-01T00:16:47.200Z,20.20
2018-06-01T00:19:14.666Z,20.09
2018-06-01T00:21:42.113Z,20.30
2018-06-01T00:24:09.666Z,19.67
2018-06-01T00:26:37.212Z,19.19
2018-06-01T00:29:04.755Z,19.04
2018-06-01T00:31:32.214Z,19.12
2018-06-01T00:33:59.650Z,19.19
2018-06-01T00:36:27.107Z,18.75
2018-06-01T00:38:54.544Z,18.96
2018-06-01T00:41:22.058Z,19.18
2018-06-01T00:43:49.717Z,19.36
2018-06-01T00:46:17.362Z,19.33
2018-06-01T00:48:44.801Z,19.55
2018-06-01T00:51:12.303Z,19.57
2018-06-01T00:53:39.755Z,19.66
2018-06-01T00:56:07.192Z,19.61
2018-06-01T00:58:35.817Z,19.33
2018-06-01T01:01:03.537Z,19.70
2018-06-01T01:03:31.710Z,19.38
2018-06-01T01:05:59.264Z,19.28
2018-06-01T01:08:28.444Z,19.27
2018-06-01T01:10:55.886Z,19.42
2018-06-01T01:13:23.453Z,19.38
2018-06-01T01:15:50.996Z,19.38
2018-06-01T01:18:18.482Z,19.29
2018-06-01T01:20:45.951Z,19.18
2018-06-01T01:23:13.446Z,19.15
2018-06-01T01:25:40.894Z,18.75
2018-06-01T01:28:08.390Z,18.87
2018-06-01T01:30:42.683Z,18.76
2018-06-01T01:33:10.270Z,18.73
2018-06-01T01:35:37.740Z,18.83
2018-06-01T01:38:05.196Z,19.10
2018-06-01T01:40:32.663Z,19.03
2018-06-01T01:43:00.119Z,19.06
2018-06-01T01:45:27.608Z,19.01
2018-06-01T01:47:55.059Z,19.15
2018-06-01T01:50:22.544Z,19.61
2018-06-01T01:52:50.092Z,19.39
2018-06-01T01:55:17.564Z,19.59
2018-06-01T01:57:45.085Z,19.82
2018-06-01T02:00:12.561Z,19.80
2018-06-01T02:02:40.010Z,19.72
2018-06-01T02:05:07.469Z,19.65
2018-06-01T02:07:34.928Z,19.77
2018-06-01T02:10:02.512Z,20.08
2018-06-01T02:12:29.956Z,20.16
2018-06-01T02:14:57.441Z,20.33
2018-06-01T02:17:24.942Z,20.35
2018-06-01T02:19:52.404Z,20.07
2018-06-01T02:22:19.874Z,19.92
2018-06-01T02:24:47.318Z,19.98
2018-06-01T02:27:14.774Z,19.96
2018-06-01T02:29:42.231Z,19.63
2018-06-01T02:32:09.665Z,19.76
2018-06-01T02:34:37.130Z,19.86
2018-06-01T02:37:04.650Z,19.84
2018-06-01T02:39:32.165Z,20.12
2018-06-01T02:41:59.648Z,20.50
2018-06-01T02:44:27.184Z,20.37
2018-06-01T02:46:54.654Z,20.02
2018-06-01T02:49:22.164Z,20.10
2018-06-01T02:51:49.615Z,20.25
2018-06-01T02:54:17.069Z,20.07
2018-06-01T02:56:44.546Z,19.68
2018-06-01T02:59:12.040Z,21.10
2018-06-01T03:01:39.524Z,21.82
2018-06-01T03:04:07.016Z,21.19
2018-06-01T03:06:46.548Z,21.31
2018-06-01T03:09:14.040Z,21.81
2018-06-01T03:11:41.516Z,22.07
2018-06-01T03:14:08.983Z,22.15
2018-06-01T03:16:36.455Z,22.23
2018-06-01T03:19:03.910Z,22.44
2018-06-01T03:21:31.381Z,22.08
2018-06-01T03:23:58.817Z,21.87
2018-06-01T03:26:26.250Z,21.53
2018-06-01T03:28:53.705Z,21.73
2018-06-01T03:31:21.140Z,21.24
2018-06-01T03:33:48.581Z,21.48
2018-06-01T03:36:16.818Z,21.64
2018-06-01T03:38:44.301Z,21.29
2018-06-01T03:41:11.761Z,21.11
2018-06-01T03:43:39.217Z,21.28
2018-06-01T03:46:06.655Z,21.73
2018-06-01T03:48:34.270Z,21.64
2018-06-01T03:51:01.794Z,22.22
2018-06-01T03:53:29.266Z,21.94
2018-06-01T03:55:56.774Z,22.11
2018-06-01T03:58:24.219Z,21.95
2018-06-01T04:00:51.677Z,21.39
2018-06-01T04:03:19.117Z,21.82
2018-06-01T04:05:46.561Z,22.05
2018-06-01T04:08:14.001Z,22.10
2018-06-01T04:10:41.495Z,22.67
2018-06-01T04:13:08.949Z,22.85
2018-06-01T04:15:36.404Z,23.16
2018-06-01T04:18:03.860Z,22.90
2018-06-01T04:20:31.337Z,23.09
2018-06-01T04:22:58.875Z,22.93
2018-06-01T04:25:26.356Z,22.45
2018-06-01T04:27:53.889Z,22.16
2018-06-01T04:30:21.324Z,22.14
2018-06-01T04:32:48.812Z,22.10
2018-06-01T04:35:16.277Z,22.40
2018-06-01T04:37:43.865Z,22.57
2018-06-01T04:40:11.383Z,22.72
2018-06-01T04:42:38.848Z,22.87
2018-06-01T04:45:06.390Z,22.33
2018-06-01T04:47:33.864Z,22.37
2018-06-01T04:50:01.481Z,22.33
2018-06-01T04:52:28.996Z,21.74
2018-06-01T04:54:56.444Z,22.61
2018-06-01T04:57:23.911Z,22.11
2018-06-01T04:59:51.354Z,22.03
2018-06-01T05:02:18.839Z,22.17
2018-06-01T05:04:46.343Z,22.34
2018-06-01T05:07:13.793Z,22.55
2018-06-01T05:09:41.262Z,22.66
2018-06-01T05:12:08.708Z,22.64
2018-06-01T05:14:36.169Z,22.30
2018-06-01T05:17:04.184Z,21.81
2018-06-01T05:19:31.646Z,21.95
2018-06-01T05:21:59.099Z,21.78
2018-06-01T05:24:26.561Z,22.08
2018-06-01T05:26:54.167Z,21.90
2018-06-01T05:29:22.386Z,22.24
2018-06-01T05:31:49.859Z,22.42
2018-06-01T05:34:17.391Z,22.12
2018-06-01T05:36:44.828Z,22.28
2018-06-01T05:39:13.094Z,22.60
2018-06-01T05:41:40.595Z,22.14
2018-06-01T05:44:08.039Z,22.35
2018-06-01T05:46:35.553Z,22.34
2018-06-01T05:49:03.168Z,22.19
2018-06-01T05:51:30.625Z,22.32
2018-06-01T05:53:58.063Z,22.46
2018-06-01T05:56:25.511Z,22.51
2018-06-01T05:58:52.995Z,22.73
2018-06-01T06:01:20.449Z,22.76
2018-06-01T06:03:47.896Z,23.23
2018-06-01T06:06:15.337Z,23.13
2018-06-01T06:08:42.830Z,23.75
2018-06-01T06:11:10.384Z,24.18
2018-06-01T06:13:37.927Z,23.96
2018-06-01T06:16:05.311Z,25.17
2018-06-01T06:18:32.839Z,24.82
2018-06-01T06:21:00.305Z,25.23
2018-06-01T06:23:27.759Z,25.43
2018-06-01T06:25:55.332Z,24.96
2018-06-01T06:28:22.800Z,24.77
2018-06-01T06:30:50.246Z,24.22
2018-06-01T06:33:17.695Z,23.98
2018-06-01T06:35:45.148Z,23.67
2018-06-01T06:38:12.628Z,23.96
2018-06-01T06:40:40.083Z,23.91
2018-06-01T06:43:07.583Z,23.96
2018-06-01T06:45:35.075Z,24.90
2018-06-01T06:48:02.551Z,25.32
2018-06-01T06:50:30.020Z,25.49
2018-06-01T06:52:57.525Z,25.78
2018-06-01T06:55:24.983Z,25.75
2018-06-01T06:57:52.440Z,25.74
2018-06-01T07:00:19.889Z,25.89
2018-06-01T07:02:47.468Z,25.95
2018-06-01T07:05:14.889Z,26.27
2018-06-01T07:07:42.440Z,26.28
2018-06-01T07:10:09.903Z,26.62
2018-06-01T07:12:37.394Z,26.62
2018-06-01T07:15:04.918Z,26.31
2018-06-01T07:17:32.412Z,26.25
2018-06-01T07:19:59.911Z,26.15
2018-06-01T07:22:27.382Z,25.79
2018-06-01T07:24:54.819Z,25.09
2018-06-01T07:27:22.266Z,24.68
2018-06-01T07:29:49.751Z,24.80
2018-06-01T07:32:17.231Z,25.02
2018-06-01T07:34:44.695Z,24.82
2018-06-01T07:37:12.148Z,25.14
2018-06-01T07:39:39.622Z,25.72
2018-06-01T07:42:07.094Z,26.43
2018-06-01T07:44:34.547Z,25.60
2018-06-01T07:47:02.033Z,25.28
2018-06-01T07:49:29.495Z,25.21
2018-06-01T07:51:57.002Z,25.08
2018-06-01T07:54:24.479Z,25.44
2018-06-01T07:56:51.937Z,25.44
2018-06-01T07:59:19.398Z,25.47
2018-06-01T08:01:46.939Z,25.66
2018-06-01T08:04:14.395Z,25.97
2018-06-01T08:06:41.861Z,26.18
2018-06-01T08:09:09.353Z,26.09
2018-06-01T08:11:36.874Z,26.18
2018-06-01T08:14:04.351Z,26.52
2018-06-01T08:16:31.908Z,26.51
2018-06-01T08:18:59.376Z,26.78
2018-06-01T08:21:26.943Z,27.20
2018-06-01T08:23:54.394Z,27.28
2018-06-01T08:26:22.110Z,26.92
2018-06-01T08:28:49.679Z,27.00
2018-06-01T08:31:17.214Z,26.88
2018-06-01T08:33:44.931Z,27.09
2018-06-01T08:36:12.899Z,27.44
2018-06-01T08:38:40.342Z,27.85
2018-06-01T08:41:07.781Z,28.06
2018-06-01T08:43:35.235Z,27.66
2018-06-01T08:46:02.724Z,27.55
2018-06-01T08:48:30.176Z,27.31
2018-06-01T08:50:57.629Z,27.40
2018-06-01T08:53:25.081Z,27.15
2018-06-01T08:55:52.553Z,27.09
2018-06-01T08:58:19.994Z,26.46
2018-06-01T09:00:47.435Z,26.25
2018-06-01T09:03:14.983Z,26.64
2018-06-01T09:05:42.890Z,26.78
2018-06-01T09:08:10.442Z,27.40
2018-06-01T09:10:37.912Z,27.78
2018-06-01T09:13:05.353Z,27.45
2018-06-01T09:15:33.226Z,27.44
2018-06-01T09:18:01.608Z,26.54
2018-06-01T09:20:29.589Z,26.21
2018-06-01T09:22:57.072Z,25.89
2018-06-01T09:25:24.611Z,26.30
2018-06-01T09:27:52.113Z,26.44
2018-06-01T09:30:19.591Z,26.77
2018-06-01T09:32:47.178Z,27.67
2018-06-01T09:35:14.644Z,27.37
2018-06-01T09:37:42.090Z,27.46
2018-06-01T09:40:09.557Z,27.53
2018-06-01T09:42:37.020Z,28.38
2018-06-01T09:45:04.506Z,29.08
2018-06-01T09:47:32.016Z,29.04
2018-06-01T09:49:59.481Z,28.52
2018-06-01T09:52:26.939Z,28.37
2018-06-01T09:54:54.393Z,27.73
2018-06-01T09:57:21.866Z,27.75
2018-06-01T09:59:49.314Z,27.51
2018-06-01T10:02:16.775Z,27.78
2018-06-01T10:04:44.238Z,28.35
2018-06-01T10:07:11.711Z,28.70
2018-06-01T10:09:39.182Z,28.91
2018-06-01T10:12:06.658Z,28.68
2018-06-01T10:14:34.101Z,28.58
2018-06-01T10:17:01.585Z,28.28
2018-06-01T10:19:29.038Z,28.41
2018-06-01T10:21:56.514Z,29.11
2018-06-01T10:24:23.978Z,29.53
2018-06-01T10:26:51.410Z,30.07
2018-06-01T10:29:18.864Z,30.04
2018-06-01T10:31:46.326Z,29.43
2018-06-01T10:34:13.778Z,29.62
2018-06-01T10:36:41.219Z,30.00
2018-06-01T10:39:08.752Z,29.33
2018-06-01T10:41:36.222Z,29.04
2018-06-01T10:44:03.695Z,29.37
2018-06-01T10:46:31.162Z,29.73
2018-06-01T10:48:58.601Z,28.83
2018-06-01T10:51:26.085Z,30.28
2018-06-01T10:53:53.590Z,30.71
2018-06-01T10:56:21.122Z,30.24
2018-06-01T10:58:49.111Z,29.21
2018-06-01T11:01:16.590Z,28.44
2018-06-01T11:03:44.035Z,27.95
2018-06-01T11:06:11.513Z,27.00
2018-06-01T11:08:38.958Z,26.73
2018-06-01T11:11:06.414Z,27.59
2018-06-01T11:13:33.900Z,27.82
2018-06-01T11:16:01.378Z,27.58
2018-06-01T11:18:28.868Z,28.07
2018-06-01T11:20:56.334Z,29.40
2018-06-01T11:23:23.866Z,30.03
2018-06-01T11:25:51.348Z,30.80
2018-06-01T11:28:18.902Z,31.46
2018-06-01T11:30:46.371Z,31.18
2018-06-01T11:33:13.835Z,32.13
2018-06-01T11:35:41.353Z,31.86
2018-06-01T11:38:08.808Z,32.78
2018-06-01T11:40:36.244Z,31.67
2018-06-01T11:43:04.523Z,31.86
2018-06-01T11:45:32.206Z,30.79
2018-06-01T11:47:59.738Z,32.31
2018-06-01T11:50:27.181Z,32.71
2018-06-01T11:52:55.284Z,33.73
2018-06-01T11:55:23.258Z,33.34
2018-06-01T11:57:50.707Z,34.98
2018-06-01T12:00:18.182Z,32.84
2018-06-01T12:02:45.647Z,31.01
2018-06-01T12:05:13.081Z,30.57
2018-06-01T12:07:40.598Z,30.46
2018-06-01T12:10:08.029Z,31.71
2018-06-01T12:12:35.638Z,30.73
2018-06-01T12:15:04.321Z,30.30
2018-06-01T12:17:31.852Z,30.92
2018-06-01T12:19:59.279Z,34.87
2018-06-01T12:22:26.824Z,37.91
2018-06-01T12:24:54.291Z,37.02
2018-06-01T12:27:21.748Z,39.42
2018-06-01T12:29:49.474Z,38.89
2018-06-01T12:32:17.143Z,40.62
2018-06-01T12:34:44.644Z,42.94
2018-06-01T12:37:12.092Z,40.68
2018-06-01T12:39:39.561Z,41.96
2018-06-01T12:42:07.018Z,42.32
2018-06-01T12:44:34.447Z,42.65
2018-06-01T12:47:01.914Z,43.23
2018-06-01T12:49:29.419Z,43.35
2018-06-01T12:51:56.852Z,42.99
2018-06-01T12:54:24.314Z,43.88
2018-06-01T12:56:51.806Z,44.22
2018-06-01T12:59:19.266Z,43.81
2018-06-01T13:01:46.723Z,42.39
2018-06-01T13:04:14.284Z,40.17
2018-06-01T13:06:41.749Z,39.64
2018-06-01T13:09:10.097Z,40.41
2018-06-01T13:11:37.535Z,42.27
2018-06-01T13:14:04.996Z,42.88
2018-06-01T13:16:32.473Z,41.41
2018-06-01T13:18:59.967Z,43.05
2018-06-01T13:21:27.402Z,40.70
2018-06-01T13:23:54.868Z,43.02
2018-06-01T13:26:22.336Z,45.13
2018-06-01T13:28:49.771Z,45.94
2018-06-01T13:31:17.241Z,44.04
2018-06-01T13:33:44.678Z,43.07
2018-06-01T13:36:12.127Z,44.78
2018-06-01T13:38:39.586Z,44.65
2018-06-01T13:41:07.072Z,44.93
2018-06-01T13:43:34.564Z,45.46
2018-06-01T13:46:02.132Z,45.39
2018-06-01T13:48:29.597Z,43.52
2018-06-01T13:50:57.038Z,42.74
2018-06-01T13:53:24.509Z,42.69
2018-06-01T13:55:51.981Z,45.02
2018-06-01T13:58:19.418Z,43.21
2018-06-01T14:00:47.511Z,43.97
2018-06-01T14:03:14.963Z,42.76
2018-06-01T14:05:42.425Z,42.90
2018-06-01T14:08:09.857Z,43.76
2018-06-01T14:10:37.306Z,43.42
2018-06-01T14:13:04.761Z,45.83
2018-06-01T14:15:32.298Z,45.84
2018-06-01T14:17:59.760Z,45.25
2018-06-01T14:20:27.254Z,44.13
2018-06-01T14:22:54.717Z,42.73
2018-06-01T14:25:22.174Z,41.23
2018-06-01T14:27:49.636Z,40.21
2018-06-01T14:30:17.150Z,39.09
2018-06-01T14:32:44.591Z,38.07
2018-06-01T14:35:12.043Z,40.80
2018-06-01T14:37:39.553Z,42.81
2018-06-01T14:40:06.982Z,40.80
2018-06-01T14:42:34.472Z,38.55
2018-06-01T14:45:01.983Z,36.63
2018-06-01T14:47:29.529Z,34.94
2018-06-01T14:49:56.979Z,33.70
2018-06-01T14:52:24.420Z,33.47
2018-06-01T14:54:51.976Z,32.77
2018-06-01T14:57:19.517Z,33.93
2018-06-01T14:59:47.084Z,33.90
2018-06-01T15:02:15.671Z,33.14
2018-06-01T15:04:43.264Z,32.89
2018-06-01T15:07:11.012Z,31.95
2018-06-01T15:09:38.455Z,31.78
2018-06-01T15:12:06.118Z,34.22
2018-06-01T15:14:33.555Z,36.21
2018-06-01T15:17:01.009Z,37.97
2018-06-01T15:19:28.466Z,40.23
2018-06-01T15:21:55.909Z,39.03
2018-06-01T15:24:23.350Z,36.96
2018-06-01T15:26:50.811Z,35.33
2018-06-01T15:29:19.114Z,34.74
2018-06-01T15:31:46.919Z,38.41
2018-06-01T15:34:14.803Z,38.13
2018-06-01T15:36:43.306Z,37.82
2018-06-01T15:39:10.769Z,37.95
2018-06-01T15:41:38.234Z,39.14
2018-06-01T15:44:05.752Z,39.87
2018-06-01T15:46:33.266Z,38.86
2018-06-01T15:49:00.776Z,38.74
2018-06-01T15:51:28.214Z,38.37
2018-06-01T15:53:55.662Z,37.69
2018-06-01T15:56:23.110Z,37.57
2018-06-01T15:58:50.647Z,39.73
2018-06-01T16:01:18.108Z,38.01
2018-06-01T16:03:45.541Z,34.65
2018-06-01T16:06:12.992Z,31.51
2018-06-01T16:08:40.483Z,30.48
2018-06-01T16:11:08.023Z,29.83
2018-06-01T16:13:35.485Z,29.10
2018-06-01T16:16:02.926Z,28.56
2018-06-01T16:18:30.517Z,28.24
2018-06-01T16:20:58.019Z,28.11
2018-06-01T16:23:25.578Z,28.12
2018-06-01T16:25:53.030Z,27.51
2018-06-01T16:28:21.857Z,27.42
2018-06-01T16:30:49.478Z,27.49
2018-06-01T16:33:17.187Z,27.42
2018-06-01T16:35:44.705Z,26.70
2018-06-01T16:38:12.225Z,26.31
2018-06-01T16:40:39.785Z,26.17
2018-06-01T16:43:07.223Z,26.16
2018-06-01T16:45:35.747Z,26.28
2018-06-01T16:48:03.181Z,26.10
2018-06-01T16:50:30.638Z,26.05
2018-06-01T16:52:58.095Z,26.13
2018-06-01T16:55:25.525Z,26.45
2018-06-01T16:57:52.986Z,26.13
2018-06-01T17:00:20.547Z,26.29
2018-06-01T17:02:48.003Z,26.39
2018-06-01T17:05:15.445Z,26.16
2018-06-01T17:07:42.917Z,24.90
2018-06-01T17:10:10.389Z,24.73
2018-06-01T17:12:37.862Z,23.83
2018-06-01T17:15:05.321Z,23.55
2018-06-01T17:17:32.769Z,23.27
2018-06-01T17:20:00.334Z,23.35
2018-06-01T17:22:27.874Z,23.61
2018-06-01T17:24:55.441Z,24.16
2018-06-01T17:27:22.924Z,24.37
2018-06-01T17:29:50.377Z,24.69
2018-06-01T17:32:17.900Z,25.02
2018-06-01T17:34:45.350Z,25.31
2018-06-01T17:37:12.815Z,26.03
2018-06-01T17:39:40.381Z,26.01
2018-06-01T17:42:07.862Z,25.33
2018-06-01T17:44:35.301Z,25.72
2018-06-01T17:47:02.773Z,27.13
2018-06-01T17:49:30.287Z,28.21
2018-06-01T17:51:57.750Z,28.84
2018-06-01T17:54:25.208Z,29.05
2018-06-01T17:56:52.664Z,28.96
2018-06-01T17:59:20.127Z,28.39
2018-06-01T18:01:47.617Z,27.71
2018-06-01T18:04:15.153Z,26.96
2018-06-01T18:06:42.672Z,26.49
2018-06-01T18:09:10.265Z,26.13
2018-06-01T18:11:37.737Z,25.70
2018-06-01T18:14:05.207Z,25.93
2018-06-01T18:16:32.737Z,25.87
2018-06-01T18:19:00.252Z,25.57
2018-06-01T18:21:27.880Z,25.41
2018-06-01T18:23:55.480Z,25.21
2018-06-01T18:26:22.993Z,25.10
2018-06-01T18:28:50.521Z,24.67
2018-06-01T18:31:17.991Z,24.81
2018-06-01T18:33:45.488Z,24.86
2018-06-01T18:36:12.962Z,24.82
2018-06-01T18:38:40.445Z,24.57
2018-06-01T18:41:07.893Z,24.09
2018-06-01T18:43:35.351Z,24.19
2018-06-01T18:46:02.821Z,24.28
2018-06-01T18:48:30.355Z,24.19
2018-06-01T18:50:57.836Z,24.17
2018-06-01T18:53:25.277Z,23.97
2018-06-01T18:55:52.785Z,23.75
2018-06-01T18:58:20.288Z,23.67
2018-06-01T19:00:48.055Z,23.78
2018-06-01T19:03:15.516Z,23.65
2018-06-01T19:05:42.975Z,23.62
2018-06-01T19:08:10.478Z,23.55
2018-06-01T19:10:38.017Z,23.43
2018-06-01T19:13:05.463Z,23.54
2018-06-01T19:15:32.895Z,23.62
2018-06-01T19:18:00.492Z,23.78
2018-06-01T19:20:28.158Z,23.66
2018-06-01T19:22:55.613Z,23.87
2018-06-01T19:25:23.056Z,23.66
2018-06-01T19:27:50.534Z,23.31
2018-06-01T19:30:18.090Z,23.38
2018-06-01T19:32:45.553Z,23.08
2018-06-01T19:35:13.022Z,23.04
2018-06-01T19:37:40.470Z,23.05
2018-06-01T19:40:07.931Z,22.85
2018-06-01T19:42:35.366Z,22.69
2018-06-01T19:45:02.818Z,22.57
2018-06-01T19:47:30.283Z,22.45
2018-06-01T19:49:57.729Z,22.61
2018-06-01T19:52:25.194Z,22.71
2018-06-01T19:54:52.640Z,22.66
2018-06-01T19:57:20.108Z,22.61
2018-06-01T19:59:47.567Z,22.55
2018-06-01T20:02:15.015Z,22.66
2018-06-01T20:04:42.511Z,22.75
2018-06-01T20:07:10.054Z,23.16
2018-06-01T20:09:37.538Z,23.24
2018-06-01T20:12:04.982Z,23.57
2018-06-01T20:14:32.634Z,23.43
2018-06-01T20:17:00.099Z,23.32
2018-06-01T20:19:27.549Z,23.23
2018-06-01T20:21:55.014Z,23.25
2018-06-01T20:24:22.486Z,23.20
2018-06-01T20:26:49.954Z,23.25
2018-06-01T20:29:17.466Z,23.26
2018-06-01T20:31:44.913Z,22.89
2018-06-01T20:34:12.367Z,22.55
2018-06-01T20:36:39.861Z,22.69
2018-06-01T20:39:07.310Z,22.55
2018-06-01T20:41:34.837Z,22.45
2018-06-01T20:44:02.376Z,23.16
2018-06-01T20:46:29.849Z,22.88
2018-06-01T20:48:57.306Z,22.95
2018-06-01T20:51:24.856Z,22.55
2018-06-01T20:53:52.264Z,22.22
2018-06-01T20:56:19.744Z,22.10
2018-06-01T20:58:47.193Z,21.86
2018-06-01T21:01:14.636Z,21.77
2018-06-01T21:03:42.109Z,21.75
2018-06-01T21:06:09.632Z,21.95
2018-06-01T21:08:37.112Z,22.03
2018-06-01T21:11:04.570Z,22.04
2018-06-01T21:13:32.105Z,22.06
2018-06-01T21:15:59.547Z,22.04
2018-06-01T21:18:27.004Z,21.93
2018-06-01T21:20:54.468Z,21.87
2018-06-01T21:23:22.000Z,21.91
2018-06-01T21:25:49.489Z,21.84
2018-06-01T21:28:16.971Z,21.59
2018-06-01T21:30:44.417Z,21.50
2018-06-01T21:33:11.892Z,21.47
2018-06-01T21:35:39.333Z,21.43
2018-06-01T21:38:06.798Z,21.55
2018-06-01T21:40:34.259Z,21.49
2018-06-01T21:43:01.724Z,21.36
2018-06-01T21:45:29.189Z,21.39
2018-06-01T21:47:56.656Z,21.45
2018-06-01T21:50:24.211Z,21.24
2018-06-01T21:52:51.656Z,21.39
2018-06-01T21:55:19.187Z,21.35
2018-06-01T21:57:46.720Z,21.33
2018-06-01T22:00:14.214Z,21.37
2018-06-01T22:02:41.911Z,21.45
2018-06-01T22:05:09.973Z,21.31
2018-06-01T22:07:41.021Z,21.26
2018-06-01T22:10:08.568Z,21.19
2018-06-01T22:12:36.149Z,21.12
2018-06-01T22:15:04.993Z,21.13
2018-06-01T22:17:33.292Z,21.02
2018-06-01T22:20:00.829Z,21.18
2018-06-01T22:22:28.281Z,21.13
2018-06-01T22:24:55.717Z,20.92
2018-06-01T22:27:23.182Z,20.97
2018-06-01T22:29:50.653Z,20.82
2018-06-01T22:32:18.092Z,20.97
2018-06-01T22:34:45.572Z,20.77
2018-06-01T22:37:13.137Z,20.96
2018-06-01T22:39:40.607Z,20.99
2018-06-01T22:42:08.075Z,20.94
2018-06-01T22:44:35.557Z,20.84
2018-06-01T22:47:02.996Z,21.00
2018-06-01T22:49:30.440Z,20.69
2018-06-01T22:51:58.009Z,20.82
2018-06-01T22:54:25.457Z,20.78
2018-06-01T22:56:52.961Z,20.76
2018-06-01T22:59:20.426Z,20.60
2018-06-01T23:01:47.877Z,20.30
2018-06-01T23:04:15.346Z,20.46
2018-06-01T23:06:42.833Z,20.65
2018-06-01T23:09:10.369Z,20.68
2018-06-01T23:11:37.853Z,20.82
2018-06-01T23:14:05.318Z,20.77
2018-06-01T23:16:32.758Z,20.80
2018-06-01T23:19:00.247Z,20.75
2018-06-01T23:21:27.723Z,20.67
2018-06-01T23:23:55.197Z,20.74
2018-06-01T23:26:22.671Z,20.75
2018-06-01T23:28:50.123Z,20.59
2018-06-01T23:31:17.590Z,20.71
2018-06-01T23:33:45.039Z,20.87
2018-06-01T23:36:12.528Z,20.75
2018-06-01T23:38:40.099Z,20.78
2018-06-01T23:41:07.590Z,20.80
2018-06-01T23:43:35.105Z,20.61
2018-06-01T23:46:02.545Z,20.55
2018-06-01T23:48:30.014Z,20.57
2018-06-01T23:50:57.459Z,20.67
2018-06-01T23:53:24.930Z,20.65
2018-06-01T23:55:52.395Z,20.70
2018-06-01T23:58:19.839Z,20.63
